sensor_id;sensor_type;location;lat;lon;timestamp;pressure;altitude;pressure_sealevel;temperature;humidity
21096;BME280;10706;49.036;12.112;2022-08-01T00:00:42;97561.09;;;20.41;57.79
21096;BME280;10706;49.036;12.112;2022-08-01T00:03:09;97557.53;;;20.54;56.65
21096;BME280;10706;49.036;12.112;2022-08-01T00:05:35;97564.09;;;20.53;57.00
21096;BME280;10706;49.036;12.112;2022-08-01T00:08:01;97558.66;;;20.53;56.72
21096;BME280;10706;49.036;12.112;2022-08-01T00:10:27;97560.84;;;20.51;57.56
21096;BME280;10706;49.036;12.112;2022-08-01T00:12:53;97558.47;;;20.50;57.55
21096;BME280;10706;49.036;12.112;2022-08-01T00:15:19;97555.13;;;20.53;56.89
21096;BME280;10706;49.036;12.112;2022-08-01T00:17:45;97545.19;;;20.48;57.66
21096;BME280;10706;49.036;12.112;2022-08-01T00:20:14;97552.34;;;20.44;58.25
21096;BME280;10706;49.036;12.112;2022-08-01T00:22:40;97547.91;;;20.48;57.13
21096;BME280;10706;49.036;12.112;2022-08-01T00:25:06;97549.84;;;20.48;56.71
21096;BME280;10706;49.036;12.112;2022-08-01T00:27:33;97547.72;;;20.45;58.42
21096;BME280;10706;49.036;12.112;2022-08-01T00:29:59;97551.31;;;20.40;57.42
21096;BME280;10706;49.036;12.112;2022-08-01T00:32:25;97558.97;;;20.38;57.22
21096;BME280;10706;49.036;12.112;2022-08-01T00:34:51;97552.25;;;20.35;57.76
21096;BME280;10706;49.036;12.112;2022-08-01T00:37:17;97556.38;;;20.33;58.19
21096;BME280;10706;49.036;12.112;2022-08-01T00:39:44;97554.75;;;20.32;57.55
21096;BME280;10706;49.036;12.112;2022-08-01T00:42:11;97551.06;;;20.28;58.28
21096;BME280;10706;49.036;12.112;2022-08-01T00:44:38;97546.53;;;20.23;58.78
21096;BME280;10706;49.036;12.112;2022-08-01T00:47:05;97538.81;;;20.16;58.10
21096;BME280;10706;49.036;12.112;2022-08-01T00:49:31;97539.41;;;20.13;59.32
21096;BME280;10706;49.036;12.112;2022-08-01T00:51:58;97544.44;;;20.06;59.54
21096;BME280;10706;49.036;12.112;2022-08-01T00:54:25;97536.72;;;19.99;60.29
21096;BME280;10706;49.036;12.112;2022-08-01T00:56:53;97537.59;;;19.95;60.33
21096;BME280;10706;49.036;12.112;2022-08-01T00:59:22;97538.31;;;19.87;60.70
21096;BME280;10706;49.036;12.112;2022-08-01T01:01:48;97535.19;;;19.79;60.94
21096;BME280;10706;49.036;12.112;2022-08-01T01:04:14;97533.69;;;19.73;60.73
21096;BME280;10706;49.036;12.112;2022-08-01T01:09:59;97532.75;;;19.64;61.70
21096;BME280;10706;49.036;12.112;2022-08-01T01:15:25;97544.38;;;19.51;62.96
21096;BME280;10706;49.036;12.112;2022-08-01T01:18:04;97540.16;;;19.45;62.50
21096;BME280;10706;49.036;12.112;2022-08-01T01:20:38;97545.66;;;19.39;63.30
21096;BME280;10706;49.036;12.112;2022-08-01T01:23:32;97544.72;;;19.30;63.51
21096;BME280;10706;49.036;12.112;2022-08-01T01:32:17;97541.16;;;19.16;64.84
21096;BME280;10706;49.036;12.112;2022-08-01T01:34:45;97550.69;;;19.13;65.25
21096;BME280;10706;49.036;12.112;2022-08-01T01:37:18;97540.16;;;19.12;65.70
21096;BME280;10706;49.036;12.112;2022-08-01T01:39:49;97543.66;;;19.12;65.45
21096;BME280;10706;49.036;12.112;2022-08-01T01:42:18;97540.66;;;19.14;65.65
21096;BME280;10706;49.036;12.112;2022-08-01T01:44:46;97543.34;;;19.14;65.63
21096;BME280;10706;49.036;12.112;2022-08-01T01:47:13;97537.16;;;19.13;65.93
21096;BME280;10706;49.036;12.112;2022-08-01T01:49:41;97544.47;;;19.13;65.91
21096;BME280;10706;49.036;12.112;2022-08-01T01:52:09;97542.78;;;19.17;65.84
21096;BME280;10706;49.036;12.112;2022-08-01T01:54:42;97546.69;;;19.11;65.86
21096;BME280;10706;49.036;12.112;2022-08-01T01:57:09;97539.63;;;19.10;65.78
21096;BME280;10706;49.036;12.112;2022-08-01T01:59:38;97534.00;;;19.06;65.91
21096;BME280;10706;49.036;12.112;2022-08-01T02:02:06;97534.59;;;19.03;66.04
21096;BME280;10706;49.036;12.112;2022-08-01T02:04:36;97532.78;;;18.98;66.03
21096;BME280;10706;49.036;12.112;2022-08-01T02:07:04;97542.19;;;19.01;66.59
21096;BME280;10706;49.036;12.112;2022-08-01T02:09:32;97544.56;;;19.08;65.88
21096;BME280;10706;49.036;12.112;2022-08-01T02:11:59;97545.63;;;19.07;65.96
21096;BME280;10706;49.036;12.112;2022-08-01T02:14:29;97546.34;;;19.12;65.29
21096;BME280;10706;49.036;12.112;2022-08-01T02:16:57;97549.06;;;19.12;65.51
21096;BME280;10706;49.036;12.112;2022-08-01T02:19:25;97546.34;;;19.12;65.84
21096;BME280;10706;49.036;12.112;2022-08-01T02:22:03;97544.25;;;19.09;66.12
21096;BME280;10706;49.036;12.112;2022-08-01T02:24:52;97553.47;;;19.08;66.57
21096;BME280;10706;49.036;12.112;2022-08-01T02:27:45;97551.25;;;19.10;65.87
21096;BME280;10706;49.036;12.112;2022-08-01T02:30:17;97550.47;;;19.10;64.96
21096;BME280;10706;49.036;12.112;2022-08-01T02:32:47;97552.88;;;19.11;64.57
21096;BME280;10706;49.036;12.112;2022-08-01T02:35:23;97552.59;;;19.13;64.61
21096;BME280;10706;49.036;12.112;2022-08-01T02:37:51;97552.66;;;19.08;65.33
21096;BME280;10706;49.036;12.112;2022-08-01T02:40:18;97554.25;;;19.09;65.10
21096;BME280;10706;49.036;12.112;2022-08-01T02:42:49;97560.00;;;19.07;64.75
21096;BME280;10706;49.036;12.112;2022-08-01T02:45:19;97551.44;;;19.00;65.10
21096;BME280;10706;49.036;12.112;2022-08-01T02:47:48;97562.84;;;18.97;64.77
21096;BME280;10706;49.036;12.112;2022-08-01T02:50:16;97555.63;;;18.92;65.48
21096;BME280;10706;49.036;12.112;2022-08-01T02:52:48;97558.00;;;18.94;65.63
21096;BME280;10706;49.036;12.112;2022-08-01T02:55:17;97562.84;;;18.97;65.41
21096;BME280;10706;49.036;12.112;2022-08-01T02:57:46;97570.72;;;18.93;66.01
21096;BME280;10706;49.036;12.112;2022-08-01T03:00:15;97571.34;;;18.90;66.13
21096;BME280;10706;49.036;12.112;2022-08-01T03:02:44;97566.22;;;18.89;66.80
21096;BME280;10706;49.036;12.112;2022-08-01T03:05:12;97567.44;;;18.96;66.40
21096;BME280;10706;49.036;12.112;2022-08-01T03:07:39;97564.75;;;18.96;66.08
21096;BME280;10706;49.036;12.112;2022-08-01T03:10:07;97565.03;;;18.95;66.32
21096;BME280;10706;49.036;12.112;2022-08-01T03:12:34;97570.09;;;19.01;65.63
21096;BME280;10706;49.036;12.112;2022-08-01T03:15:03;97577.59;;;19.04;64.53
21096;BME280;10706;49.036;12.112;2022-08-01T03:17:30;97575.19;;;19.03;65.60
21096;BME280;10706;49.036;12.112;2022-08-01T03:19:58;97578.09;;;19.07;65.31
21096;BME280;10706;49.036;12.112;2022-08-01T03:22:26;97565.19;;;19.03;64.87
21096;BME280;10706;49.036;12.112;2022-08-01T03:24:54;97574.31;;;19.08;64.77
21096;BME280;10706;49.036;12.112;2022-08-01T03:27:23;97576.94;;;19.13;65.00
21096;BME280;10706;49.036;12.112;2022-08-01T03:29:51;97577.75;;;19.13;64.37
21096;BME280;10706;49.036;12.112;2022-08-01T03:32:19;97587.59;;;19.23;62.92
21096;BME280;10706;49.036;12.112;2022-08-01T03:34:47;97584.59;;;19.25;63.03
21096;BME280;10706;49.036;12.112;2022-08-01T03:40:24;97585.84;;;19.32;62.47
21096;BME280;10706;49.036;12.112;2022-08-01T03:43:05;97585.13;;;19.27;62.14
21096;BME280;10706;49.036;12.112;2022-08-01T03:45:40;97588.91;;;19.26;63.19
21096;BME280;10706;49.036;12.112;2022-08-01T03:48:16;97594.72;;;19.19;62.12
21096;BME280;10706;49.036;12.112;2022-08-01T03:50:47;97596.97;;;19.12;62.98
21096;BME280;10706;49.036;12.112;2022-08-01T03:53:14;97601.44;;;19.02;62.79
21096;BME280;10706;49.036;12.112;2022-08-01T03:55:42;97596.09;;;18.97;62.44
21096;BME280;10706;49.036;12.112;2022-08-01T03:58:10;97603.22;;;18.93;62.64
21096;BME280;10706;49.036;12.112;2022-08-01T04:00:38;97599.41;;;18.94;62.63
21096;BME280;10706;49.036;12.112;2022-08-01T04:03:07;97600.50;;;18.93;62.23
21096;BME280;10706;49.036;12.112;2022-08-01T04:05:33;97613.53;;;18.91;64.02
21096;BME280;10706;49.036;12.112;2022-08-01T04:08:00;97610.03;;;18.91;64.33
21096;BME280;10706;49.036;12.112;2022-08-01T04:10:28;97604.91;;;18.89;65.69
21096;BME280;10706;49.036;12.112;2022-08-01T04:12:54;97610.31;;;18.89;66.23
21096;BME280;10706;49.036;12.112;2022-08-01T04:15:21;97610.31;;;18.89;65.79
21096;BME280;10706;49.036;12.112;2022-08-01T04:17:47;97609.78;;;18.87;66.31
21096;BME280;10706;49.036;12.112;2022-08-01T04:20:13;97609.41;;;18.94;66.16
21096;BME280;10706;49.036;12.112;2022-08-01T04:22:41;97617.97;;;19.01;66.12
21096;BME280;10706;49.036;12.112;2022-08-01T04:25:24;97610.38;;;19.03;65.30
21096;BME280;10706;49.036;12.112;2022-08-01T04:27:53;97614.53;;;19.14;63.92
21096;BME280;10706;49.036;12.112;2022-08-01T04:30:27;97614.09;;;19.26;64.31
21096;BME280;10706;49.036;12.112;2022-08-01T04:32:55;97622.66;;;19.33;64.70
21096;BME280;10706;49.036;12.112;2022-08-01T04:35:24;97626.38;;;19.37;62.79
21096;BME280;10706;49.036;12.112;2022-08-01T04:37:51;97628.97;;;19.42;61.42
21096;BME280;10706;49.036;12.112;2022-08-01T04:40:18;97629.03;;;19.56;61.24
21096;BME280;10706;49.036;12.112;2022-08-01T04:42:48;97635.03;;;19.72;60.02
21096;BME280;10706;49.036;12.112;2022-08-01T04:45:15;97634.38;;;20.08;57.41
21096;BME280;10706;49.036;12.112;2022-08-01T04:47:42;97637.00;;;19.99;58.60
21096;BME280;10706;49.036;12.112;2022-08-01T04:50:09;97644.06;;;20.14;58.42
21096;BME280;10706;49.036;12.112;2022-08-01T04:52:37;97640.50;;;20.14;58.13
21096;BME280;10706;49.036;12.112;2022-08-01T04:55:04;97639.63;;;20.18;58.66
21096;BME280;10706;49.036;12.112;2022-08-01T04:57:39;97647.06;;;20.27;58.26
21096;BME280;10706;49.036;12.112;2022-08-01T05:00:06;97648.06;;;20.31;57.76
21096;BME280;10706;49.036;12.112;2022-08-01T05:02:32;97656.50;;;20.29;58.04
21096;BME280;10706;49.036;12.112;2022-08-01T05:04:58;97663.34;;;20.41;57.30
21096;BME280;10706;49.036;12.112;2022-08-01T05:07:24;97667.94;;;20.40;57.26
21096;BME280;10706;49.036;12.112;2022-08-01T05:09:50;97665.56;;;20.38;57.89
21096;BME280;10706;49.036;12.112;2022-08-01T05:12:16;97667.88;;;20.31;57.79
21096;BME280;10706;49.036;12.112;2022-08-01T05:14:42;97674.88;;;20.32;58.42
21096;BME280;10706;49.036;12.112;2022-08-01T05:17:09;97680.81;;;20.34;58.78
21096;BME280;10706;49.036;12.112;2022-08-01T05:19:38;97676.69;;;20.51;57.65
21096;BME280;10706;49.036;12.112;2022-08-01T05:22:07;97677.78;;;20.36;58.07
21096;BME280;10706;49.036;12.112;2022-08-01T05:24:37;97675.16;;;20.31;59.07
21096;BME280;10706;49.036;12.112;2022-08-01T05:27:04;97677.63;;;20.46;57.84
21096;BME280;10706;49.036;12.112;2022-08-01T05:29:30;97686.34;;;20.43;58.38
21096;BME280;10706;49.036;12.112;2022-08-01T05:31:57;97677.00;;;20.49;58.50
21096;BME280;10706;49.036;12.112;2022-08-01T05:34:25;97688.19;;;20.62;58.11
21096;BME280;10706;49.036;12.112;2022-08-01T05:36:51;97685.97;;;20.64;60.34
21096;BME280;10706;49.036;12.112;2022-08-01T05:39:18;97685.25;;;20.72;60.45
21096;BME280;10706;49.036;12.112;2022-08-01T05:41:44;97687.88;;;20.77;60.66
21096;BME280;10706;49.036;12.112;2022-08-01T05:44:10;97692.22;;;20.78;58.57
21096;BME280;10706;49.036;12.112;2022-08-01T05:46:37;97690.88;;;20.89;59.86
21096;BME280;10706;49.036;12.112;2022-08-01T05:49:04;97700.50;;;21.09;58.33
21096;BME280;10706;49.036;12.112;2022-08-01T05:51:30;97701.84;;;21.34;57.00
21096;BME280;10706;49.036;12.112;2022-08-01T05:53:57;97694.09;;;21.42;58.34
21096;BME280;10706;49.036;12.112;2022-08-01T05:56:23;97697.41;;;21.39;57.34
21096;BME280;10706;49.036;12.112;2022-08-01T05:58:50;97702.44;;;21.45;57.89
21096;BME280;10706;49.036;12.112;2022-08-01T06:01:17;97698.53;;;21.74;56.42
21096;BME280;10706;49.036;12.112;2022-08-01T06:03:44;97692.28;;;21.73;55.64
21096;BME280;10706;49.036;12.112;2022-08-01T06:06:10;97694.81;;;21.92;55.58
21096;BME280;10706;49.036;12.112;2022-08-01T06:08:36;97689.78;;;21.86;55.68
21096;BME280;10706;49.036;12.112;2022-08-01T06:11:01;97701.22;;;21.97;55.32
21096;BME280;10706;49.036;12.112;2022-08-01T06:13:27;97695.97;;;22.00;55.13
21096;BME280;10706;49.036;12.112;2022-08-01T06:15:54;97702.25;;;22.09;54.41
21096;BME280;10706;49.036;12.112;2022-08-01T06:18:20;97701.25;;;22.28;54.54
21096;BME280;10706;49.036;12.112;2022-08-01T06:20:46;97697.16;;;22.17;54.80
21096;BME280;10706;49.036;12.112;2022-08-01T06:23:12;97704.81;;;22.37;55.05
21096;BME280;10706;49.036;12.112;2022-08-01T06:25:38;97718.88;;;22.30;54.51
21096;BME280;10706;49.036;12.112;2022-08-01T06:28:04;97713.75;;;22.29;54.61
21096;BME280;10706;49.036;12.112;2022-08-01T06:30:30;97711.03;;;22.29;54.27
21096;BME280;10706;49.036;12.112;2022-08-01T06:32:55;97714.97;;;22.54;54.11
21096;BME280;10706;49.036;12.112;2022-08-01T06:35:24;97721.84;;;22.51;54.71
21096;BME280;10706;49.036;12.112;2022-08-01T06:37:50;97711.84;;;22.78;53.84
21096;BME280;10706;49.036;12.112;2022-08-01T06:40:15;97710.41;;;22.72;54.17
21096;BME280;10706;49.036;12.112;2022-08-01T06:42:41;97715.38;;;22.70;53.98
21096;BME280;10706;49.036;12.112;2022-08-01T06:45:10;97711.41;;;22.85;53.75
21096;BME280;10706;49.036;12.112;2022-08-01T06:47:40;97717.16;;;22.83;53.61
21096;BME280;10706;49.036;12.112;2022-08-01T06:50:08;97713.97;;;22.81;54.12
21096;BME280;10706;49.036;12.112;2022-08-01T06:52:35;97713.00;;;22.86;53.40
21096;BME280;10706;49.036;12.112;2022-08-01T06:55:01;97721.69;;;22.97;53.99
21096;BME280;10706;49.036;12.112;2022-08-01T06:57:27;97719.13;;;23.00;53.14
21096;BME280;10706;49.036;12.112;2022-08-01T06:59:53;97718.22;;;23.14;53.18
21096;BME280;10706;49.036;12.112;2022-08-01T07:02:19;97709.50;;;23.03;53.18
21096;BME280;10706;49.036;12.112;2022-08-01T07:04:45;97712.78;;;23.31;53.13
21096;BME280;10706;49.036;12.112;2022-08-01T07:07:11;97712.47;;;23.33;52.31
21096;BME280;10706;49.036;12.112;2022-08-01T07:09:36;97714.72;;;23.57;51.86
21096;BME280;10706;49.036;12.112;2022-08-01T07:12:03;97718.72;;;23.59;51.75
21096;BME280;10706;49.036;12.112;2022-08-01T07:14:29;97723.72;;;23.75;52.65
21096;BME280;10706;49.036;12.112;2022-08-01T07:16:55;97726.56;;;24.13;51.01
21096;BME280;10706;49.036;12.112;2022-08-01T07:19:21;97726.75;;;23.99;51.18
21096;BME280;10706;49.036;12.112;2022-08-01T07:21:46;97728.53;;;23.95;50.73
21096;BME280;10706;49.036;12.112;2022-08-01T07:24:14;97728.38;;;23.83;51.86
21096;BME280;10706;49.036;12.112;2022-08-01T07:26:48;97728.50;;;23.78;51.85
21096;BME280;10706;49.036;12.112;2022-08-01T07:29:14;97729.47;;;23.73;52.52
21096;BME280;10706;49.036;12.112;2022-08-01T07:31:40;97733.81;;;23.57;52.29
21096;BME280;10706;49.036;12.112;2022-08-01T07:34:07;97739.75;;;24.02;52.54
21096;BME280;10706;49.036;12.112;2022-08-01T07:36:32;97735.41;;;24.10;52.34
21096;BME280;10706;49.036;12.112;2022-08-01T07:38:58;97737.63;;;24.17;50.74
21096;BME280;10706;49.036;12.112;2022-08-01T07:41:24;97738.13;;;23.66;52.05
21096;BME280;10706;49.036;12.112;2022-08-01T07:43:50;97730.31;;;23.65;52.22
21096;BME280;10706;49.036;12.112;2022-08-01T07:46:16;97735.91;;;23.60;52.64
21096;BME280;10706;49.036;12.112;2022-08-01T07:48:42;97736.53;;;23.65;52.05
21096;BME280;10706;49.036;12.112;2022-08-01T07:51:08;97732.38;;;23.94;51.99
21096;BME280;10706;49.036;12.112;2022-08-01T07:53:36;97731.75;;;23.97;51.86
21096;BME280;10706;49.036;12.112;2022-08-01T07:56:03;97732.53;;;24.06;51.54
21096;BME280;10706;49.036;12.112;2022-08-01T07:58:30;97736.16;;;24.28;51.36
21096;BME280;10706;49.036;12.112;2022-08-01T08:00:56;97731.06;;;24.18;51.80
21096;BME280;10706;49.036;12.112;2022-08-01T08:03:22;97742.25;;;24.34;50.44
21096;BME280;10706;49.036;12.112;2022-08-01T08:05:48;97740.97;;;24.31;50.74
21096;BME280;10706;49.036;12.112;2022-08-01T08:08:14;97728.53;;;24.51;50.52
21096;BME280;10706;49.036;12.112;2022-08-01T08:10:41;97733.19;;;24.51;50.38
21096;BME280;10706;49.036;12.112;2022-08-01T08:13:07;97730.84;;;24.32;50.53
21096;BME280;10706;49.036;12.112;2022-08-01T08:15:32;97731.97;;;24.39;50.83
21096;BME280;10706;49.036;12.112;2022-08-01T08:17:58;97731.91;;;24.57;50.53
21096;BME280;10706;49.036;12.112;2022-08-01T08:20:24;97730.53;;;24.80;50.52
21096;BME280;10706;49.036;12.112;2022-08-01T08:22:53;97733.56;;;24.88;49.00
21096;BME280;10706;49.036;12.112;2022-08-01T08:25:19;97733.25;;;24.89;49.66
21096;BME280;10706;49.036;12.112;2022-08-01T08:27:45;97724.97;;;24.98;48.33
21096;BME280;10706;49.036;12.112;2022-08-01T08:30:12;97731.13;;;24.95;48.74
21096;BME280;10706;49.036;12.112;2022-08-01T08:32:38;97724.53;;;25.47;48.12
21096;BME280;10706;49.036;12.112;2022-08-01T08:35:06;97713.81;;;25.12;47.79
21096;BME280;10706;49.036;12.112;2022-08-01T08:37:33;97728.75;;;25.14;47.46
21096;BME280;10706;49.036;12.112;2022-08-01T08:39:59;97735.59;;;24.99;48.33
21096;BME280;10706;49.036;12.112;2022-08-01T08:42:25;97731.44;;;24.93;47.87
21096;BME280;10706;49.036;12.112;2022-08-01T08:44:50;97729.53;;;25.15;47.50
21096;BME280;10706;49.036;12.112;2022-08-01T08:47:17;97729.41;;;25.11;46.93
21096;BME280;10706;49.036;12.112;2022-08-01T08:49:45;97733.28;;;25.40;47.96
21096;BME280;10706;49.036;12.112;2022-08-01T08:52:11;97727.81;;;25.10;48.03
21096;BME280;10706;49.036;12.112;2022-08-01T08:54:38;97736.88;;;25.02;48.75
21096;BME280;10706;49.036;12.112;2022-08-01T08:57:06;97741.28;;;24.86;48.86
21096;BME280;10706;49.036;12.112;2022-08-01T08:59:32;97734.97;;;24.94;48.11
21096;BME280;10706;49.036;12.112;2022-08-01T09:01:59;97747.56;;;25.16;48.51
21096;BME280;10706;49.036;12.112;2022-08-01T09:04:25;97740.88;;;25.05;47.43
21096;BME280;10706;49.036;12.112;2022-08-01T09:06:52;97738.50;;;25.24;48.50
21096;BME280;10706;49.036;12.112;2022-08-01T09:09:18;97733.47;;;25.35;47.97
21096;BME280;10706;49.036;12.112;2022-08-01T09:11:44;97739.88;;;25.39;46.92
21096;BME280;10706;49.036;12.112;2022-08-01T09:14:16;97743.38;;;25.39;47.82
21096;BME280;10706;49.036;12.112;2022-08-01T09:17:06;97737.47;;;25.58;46.79
21096;BME280;10706;49.036;12.112;2022-08-01T09:19:39;97748.00;;;25.69;47.33
21096;BME280;10706;49.036;12.112;2022-08-01T09:22:11;97748.19;;;25.42;46.94
21096;BME280;10706;49.036;12.112;2022-08-01T09:24:39;97745.13;;;25.23;47.13
21096;BME280;10706;49.036;12.112;2022-08-01T09:27:21;97747.00;;;25.22;47.70
21096;BME280;10706;49.036;12.112;2022-08-01T09:29:52;97740.28;;;25.20;47.64
21096;BME280;10706;49.036;12.112;2022-08-01T09:32:19;97739.25;;;25.33;45.88
21096;BME280;10706;49.036;12.112;2022-08-01T09:34:45;97739.13;;;25.51;47.10
21096;BME280;10706;49.036;12.112;2022-08-01T09:37:12;97739.59;;;25.74;45.38
21096;BME280;10706;49.036;12.112;2022-08-01T09:39:39;97745.41;;;25.51;45.84
21096;BME280;10706;49.036;12.112;2022-08-01T09:42:27;97729.16;;;25.88;45.02
21096;BME280;10706;49.036;12.112;2022-08-01T09:44:53;97731.53;;;26.11;44.86
21096;BME280;10706;49.036;12.112;2022-08-01T09:47:20;97750.81;;;26.02;43.11
21096;BME280;10706;49.036;12.112;2022-08-01T09:49:55;97739.88;;;25.81;42.16
21096;BME280;10706;49.036;12.112;2022-08-01T09:52:25;97745.19;;;25.98;42.84
21096;BME280;10706;49.036;12.112;2022-08-01T09:55:05;97733.13;;;25.78;43.60
21096;BME280;10706;49.036;12.112;2022-08-01T09:57:31;97744.25;;;25.52;44.56
21096;BME280;10706;49.036;12.112;2022-08-01T10:00:01;97747.63;;;25.79;43.81
21096;BME280;10706;49.036;12.112;2022-08-01T10:02:39;97744.16;;;25.70;45.66
21096;BME280;10706;49.036;12.112;2022-08-01T10:05:09;97735.06;;;25.78;44.67
21096;BME280;10706;49.036;12.112;2022-08-01T10:07:55;97742.16;;;26.12;44.38
21096;BME280;10706;49.036;12.112;2022-08-01T10:10:21;97737.97;;;26.15;41.80
21096;BME280;10706;49.036;12.112;2022-08-01T10:12:47;97741.00;;;25.80;43.37
21096;BME280;10706;49.036;12.112;2022-08-01T10:15:16;97740.25;;;25.71;43.77
21096;BME280;10706;49.036;12.112;2022-08-01T10:17:56;97734.63;;;25.88;44.23
21096;BME280;10706;49.036;12.112;2022-08-01T10:20:29;97728.84;;;26.23;42.96
21096;BME280;10706;49.036;12.112;2022-08-01T10:22:58;97729.22;;;26.34;41.76
21096;BME280;10706;49.036;12.112;2022-08-01T10:25:28;97726.56;;;26.25;42.59
21096;BME280;10706;49.036;12.112;2022-08-01T10:27:55;97728.97;;;26.27;41.22
21096;BME280;10706;49.036;12.112;2022-08-01T10:30:23;97724.22;;;26.03;41.79
21096;BME280;10706;49.036;12.112;2022-08-01T10:32:52;97725.00;;;26.24;41.94
21096;BME280;10706;49.036;12.112;2022-08-01T10:35:19;97713.84;;;26.42;41.67
21096;BME280;10706;49.036;12.112;2022-08-01T10:37:46;97710.13;;;26.83;41.36
21096;BME280;10706;49.036;12.112;2022-08-01T10:40:13;97702.47;;;26.89;41.13
21096;BME280;10706;49.036;12.112;2022-08-01T10:42:44;97705.84;;;27.23;40.53
21096;BME280;10706;49.036;12.112;2022-08-01T10:45:14;97700.97;;;27.28;39.62
21096;BME280;10706;49.036;12.112;2022-08-01T10:50:42;97707.16;;;26.76;38.85
21096;BME280;10706;49.036;12.112;2022-08-01T10:53:17;97706.47;;;26.67;38.83
21096;BME280;10706;49.036;12.112;2022-08-01T10:55:57;97705.34;;;26.68;39.10
21096;BME280;10706;49.036;12.112;2022-08-01T10:58:34;97710.53;;;26.48;40.10
21096;BME280;10706;49.036;12.112;2022-08-01T11:01:25;97709.53;;;26.65;40.16
21096;BME280;10706;49.036;12.112;2022-08-01T11:04:02;97702.94;;;26.66;40.40
21096;BME280;10706;49.036;12.112;2022-08-01T11:09:00;97713.22;;;26.24;41.36
21096;BME280;10706;49.036;12.112;2022-08-01T11:11:26;97706.00;;;26.52;40.95
21096;BME280;10706;49.036;12.112;2022-08-01T11:16:37;97704.88;;;26.20;41.96
21096;BME280;10706;49.036;12.112;2022-08-01T11:19:05;97698.66;;;26.32;41.32
21096;BME280;10706;49.036;12.112;2022-08-01T11:21:59;97700.34;;;26.36;41.48
21096;BME280;10706;49.036;12.112;2022-08-01T11:27:27;97694.59;;;26.63;40.70
21096;BME280;10706;49.036;12.112;2022-08-01T11:32:50;97691.31;;;26.69;42.41
21096;BME280;10706;49.036;12.112;2022-08-01T11:35:17;97684.97;;;27.06;40.30
21096;BME280;10706;49.036;12.112;2022-08-01T11:37:46;97695.41;;;27.81;38.49
21096;BME280;10706;49.036;12.112;2022-08-01T11:42:43;97692.56;;;27.78;38.32
21096;BME280;10706;49.036;12.112;2022-08-01T11:45:09;97693.53;;;27.69;38.48
21096;BME280;10706;49.036;12.112;2022-08-01T11:47:49;97689.84;;;27.25;38.71
21096;BME280;10706;49.036;12.112;2022-08-01T11:50:34;97685.66;;;27.15;39.35
21096;BME280;10706;49.036;12.112;2022-08-01T11:53:05;97687.06;;;27.78;39.54
21096;BME280;10706;49.036;12.112;2022-08-01T11:55:32;97686.25;;;27.89;37.64
21096;BME280;10706;49.036;12.112;2022-08-01T11:58:07;97687.38;;;27.88;37.55
21096;BME280;10706;49.036;12.112;2022-08-01T12:00:34;97680.28;;;28.16;36.44
21096;BME280;10706;49.036;12.112;2022-08-01T12:03:04;97667.44;;;28.83;35.08
21096;BME280;10706;49.036;12.112;2022-08-01T12:05:32;97679.22;;;28.84;35.86
21096;BME280;10706;49.036;12.112;2022-08-01T12:08:00;97679.78;;;29.25;35.42
21096;BME280;10706;49.036;12.112;2022-08-01T12:10:33;97667.75;;;28.98;34.82
21096;BME280;10706;49.036;12.112;2022-08-01T12:13:06;97675.31;;;28.85;36.08
21096;BME280;10706;49.036;12.112;2022-08-01T12:15:37;97678.53;;;28.23;37.61
21096;BME280;10706;49.036;12.112;2022-08-01T12:18:05;97689.13;;;27.81;38.15
21096;BME280;10706;49.036;12.112;2022-08-01T12:20:41;97685.50;;;27.36;39.38
21096;BME280;10706;49.036;12.112;2022-08-01T12:23:14;97674.44;;;27.20;39.72
21096;BME280;10706;49.036;12.112;2022-08-01T12:25:42;97680.66;;;27.05;40.45
21096;BME280;10706;49.036;12.112;2022-08-01T12:28:12;97680.75;;;27.08;40.37
21096;BME280;10706;49.036;12.112;2022-08-01T12:30:39;97685.56;;;26.74;40.54
21096;BME280;10706;49.036;12.112;2022-08-01T12:33:08;97683.47;;;27.08;40.57
21096;BME280;10706;49.036;12.112;2022-08-01T12:35:36;97686.44;;;27.15;40.37
21096;BME280;10706;49.036;12.112;2022-08-01T12:38:07;97687.03;;;27.09;41.35
21096;BME280;10706;49.036;12.112;2022-08-01T12:40:43;97682.66;;;27.32;41.06
21096;BME280;10706;49.036;12.112;2022-08-01T12:43:10;97678.06;;;27.49;39.53
21096;BME280;10706;49.036;12.112;2022-08-01T12:45:43;97676.75;;;27.59;39.16
21096;BME280;10706;49.036;12.112;2022-08-01T12:48:15;97681.59;;;28.38;36.92
21096;BME280;10706;49.036;12.112;2022-08-01T12:50:46;97680.47;;;28.55;37.28
21096;BME280;10706;49.036;12.112;2022-08-01T12:53:13;97675.03;;;28.90;35.97
21096;BME280;10706;49.036;12.112;2022-08-01T12:55:50;97668.84;;;29.29;35.25
21096;BME280;10706;49.036;12.112;2022-08-01T12:58:18;97678.19;;;29.63;34.56
21096;BME280;10706;49.036;12.112;2022-08-01T13:00:47;97665.41;;;29.94;32.40
21096;BME280;10706;49.036;12.112;2022-08-01T13:03:19;97654.91;;;29.99;31.96
21096;BME280;10706;49.036;12.112;2022-08-01T13:05:54;97653.38;;;29.04;34.14
21096;BME280;10706;49.036;12.112;2022-08-01T13:08:31;97647.38;;;28.83;33.43
21096;BME280;10706;49.036;12.112;2022-08-01T13:11:06;97644.72;;;28.86;34.47
21096;BME280;10706;49.036;12.112;2022-08-01T13:13:40;97643.66;;;29.46;34.11
21096;BME280;10706;49.036;12.112;2022-08-01T13:16:08;97642.44;;;29.43;34.38
21096;BME280;10706;49.036;12.112;2022-08-01T13:18:35;97641.13;;;29.57;34.47
21096;BME280;10706;49.036;12.112;2022-08-01T13:21:28;97652.13;;;29.96;33.87
21096;BME280;10706;49.036;12.112;2022-08-01T13:26:49;97632.88;;;31.56;30.44
21096;BME280;10706;49.036;12.112;2022-08-01T13:29:21;97633.25;;;31.92;29.53
21096;BME280;10706;49.036;12.112;2022-08-01T13:31:49;97616.38;;;31.29;31.37
21096;BME280;10706;49.036;12.112;2022-08-01T13:34:15;97625.91;;;31.35;30.22